Estación Meteorológica Peña el Pijo (Robertgarden) [ 11/17/17 23:53:52 CET ]

Fecha Hora Presion(HPa) Temp (°C) Humedad % Rocio (°C) Viento ( m/s) Direccion Lluvia 1Hora(mm) Lluvia 24H(mm) LLuvia Total(mm)
2017-Sep-21 01:01:49 1011.900 11.9 78 8.2         1457.65
2017-Sep-21 02:01:39 1012.000 10.9 80 7.6         1457.65
2017-Sep-21 03:01:33 1011.800 10.4 81 7.3         1457.65
2017-Sep-21 04:01:34 1011.500 9.6 83 6.8         1457.65
2017-Sep-21 05:01:34 1011.100 9.1 84 6.5         1457.65
2017-Sep-21 06:01:41 1010.800 8.9 84 6.3         1457.65
2017-Sep-21 07:01:51 1010.700 8.8 84 6.2         1457.65
2017-Sep-21 08:01:51 1011.100 8.3 85 5.9         1457.65
2017-Sep-21 09:01:43 1011.300 9.6 87 7.5         1457.65
2017-Sep-21 10:01:42 1011.100 17.0 79 13.3         1457.65
2017-Sep-21 11:01:44 1011.300 23.6 49 12.3         1457.65
2017-Sep-21 12:01:55 1010.600 28.1 36 11.5         1457.65
2017-Sep-21 13:01:48 1010.400 29.4 32 10.9         1457.65
2017-Sep-21 14:01:45 1010.100 29.6 27 8.4 0.7 SW     1457.65
2017-Sep-21 15:01:52 1009.600 29.0 27 7.9         1457.65
2017-Sep-21 16:01:47 1009.100 26.6 28 6.5         1457.65
2017-Sep-21 17:01:58 1008.700 26.6 27 6.5         1457.65
2017-Sep-21 18:01:37 1009.200 25.4 29 6.0         1457.65
2017-Sep-21 19:01:49 1009.300 22.9 34 6.1         1457.65
2017-Sep-21 20:01:48 1009.600 21.3 40 7.2         1457.65
2017-Sep-21 21:01:29 1010.000 18.5 48 7.2         1457.65
2017-Sep-21 22:01:34 1010.600 15.9 54 6.6         1457.65
2017-Sep-21 23:01:38 1011.000 13.8 62 6.6         1457.65

Temperatura Máxima:29°    Temperatura Mínima:
Presión Máxima:1012.000 Hpa    Presión Mínima:1008.700 Hpa


Volver